Time;durP1;ratioP1;P1;durP2;ratioP2;P2;SDS_P1;SDS_P2;PMS_P1;PMS_P2;Temp;Humidity;BMP_temperature;BMP_pressure;BME280_temperature;BME280_humidity;BME280_pressure;Samples;Min_cycle;Max_cycle;Signal;HPM_P1;HPM_P2
2022/05/11 00:01:16;;;;;;;17.30;6.15;;;;;;;2.19;73.45;100395.52;1711308;83;21127;-69
2022/05/11 00:03:44;;;;;;;13.93;5.83;;;;;;;2.16;73.39;100395.50;1711412;83;21833;-72
2022/05/11 00:06:13;;;;;;;17.37;6.10;;;;;;;2.12;73.89;100395.08;1711611;83;21005;-71
2022/05/11 00:08:40;;;;;;;13.65;5.92;;;;;;;2.09;74.07;100389.86;1711685;83;21120;-71
2022/05/11 00:11:07;;;;;;;13.05;5.65;;;;;;;2.05;74.21;100398.09;1707284;83;21014;-72
2022/05/11 00:13:33;;;;;;;9.75;5.17;;;;;;;2.03;74.50;100396.36;1703440;84;21065;-71
2022/05/11 00:16:00;;;;;;;14.30;5.65;;;;;;;2.02;74.93;100399.81;1703860;84;21146;-71
2022/05/11 00:18:27;;;;;;;11.05;5.03;;;;;;;1.99;74.69;100397.22;1703330;84;21551;-71
2022/05/11 00:20:54;;;;;;;11.10;4.20;;;;;;;1.95;74.90;100392.43;1703266;84;21042;-72
2022/05/11 00:23:20;;;;;;;12.65;4.45;;;;;;;1.93;74.95;100399.34;1703524;84;21112;-71
2022/05/11 00:25:49;;;;;;;8.20;4.08;;;;;;;1.89;75.32;100396.33;1703620;84;21589;-70
2022/05/11 00:28:16;;;;;;;11.00;4.53;;;;;;;1.89;75.94;100402.39;1703533;84;21150;-70
2022/05/11 00:30:44;;;;;;;10.03;4.58;;;;;;;1.86;75.76;100398.49;1703628;84;21050;-69
2022/05/11 00:33:13;;;;;;;13.85;4.62;;;;;;;1.82;75.61;100400.64;1711532;83;22032;-70
2022/05/11 00:35:40;;;;;;;10.78;4.87;;;;;;;1.81;75.53;100406.67;1713421;83;21057;-71
2022/05/11 00:38:08;;;;;;;14.03;4.90;;;;;;;1.78;75.48;100403.22;1713128;82;21045;-70
2022/05/11 00:40:41;;;;;;;10.23;4.08;;;;;;;1.74;75.83;100398.88;1713019;83;21166;-69
2022/05/11 00:43:08;;;;;;;11.63;4.28;;;;;;;1.66;75.92;100387.17;1712620;83;21053;-71
2022/05/11 00:45:39;;;;;;;8.58;4.72;;;;;;;1.65;76.31;100391.91;1713095;82;21053;-70
2022/05/11 00:50:56;;;;;;;13.62;5.17;;;;;;;1.65;77.10;100394.52;1678545;85;21009;-71
2022/05/11 00:53:25;;;;;;;9.10;3.85;;;;;;;1.62;77.15;100399.70;1712840;83;21972;-70
2022/05/11 00:55:55;;;;;;;10.20;4.20;;;;;;;1.59;77.26;100389.31;1678100;85;21077;-70
2022/05/11 00:58:41;;;;;;;8.48;4.30;;;;;;;1.57;77.58;100394.93;1678238;85;21018;-71
2022/05/11 01:01:08;;;;;;;10.82;4.22;;;;;;;1.52;77.81;100392.72;1712837;83;21114;-71
2022/05/11 01:03:51;;;;;;;9.13;4.40;;;;;;;1.44;77.80;100386.22;1712618;83;21073;-71
2022/05/11 01:06:21;;;;;;;10.03;4.45;;;;;;;1.44;77.80;100386.22;1658348;85;22118;-73
2022/05/11 01:08:48;;;;;;;9.05;4.25;;;;;;;1.41;77.71;100388.37;1713196;83;20990;-70
2022/05/11 01:11:15;;;;;;;10.93;4.03;;;;;;;1.35;77.89;100388.33;1661746;84;21096;-69
2022/05/11 01:13:42;;;;;;;11.03;4.08;;;;;;;1.33;78.71;100391.34;1690890;84;21123;-71
2022/05/11 01:16:09;;;;;;;10.28;4.20;;;;;;;1.33;78.71;100391.34;1690960;84;21044;-71
2022/05/11 01:18:38;;;;;;;8.08;4.03;;;;;;;1.31;78.82;100391.80;1690819;84;21140;-72
2022/05/11 01:23:44;;;;;;;11.40;4.00;;;;;;;1.32;79.62;100392.22;1806142;78;22793;-70
2022/05/11 01:26:11;;;;;;;10.43;4.20;;;;;;;1.28;79.87;100391.76;1768712;79;20933;-71
2022/05/11 01:28:43;;;;;;;8.28;3.85;;;;;;;1.23;80.25;100382.66;1780396;79;21385;-70
2022/05/11 01:31:11;;;;;;;14.65;3.72;;;;;;;1.18;80.18;100380.91;1769557;79;21027;-70
2022/05/11 01:33:43;;;;;;;10.63;4.30;;;;;;;1.18;80.18;100380.91;1784159;79;21463;-70
2022/05/11 01:36:15;;;;;;;7.37;4.00;;;;;;;1.16;80.55;100377.44;1789366;79;21131;-71
2022/05/11 01:38:54;;;;;;;8.15;4.22;;;;;;;1.10;81.47;100370.91;1782949;79;21047;-70
2022/05/11 01:41:31;;;;;;;22.85;6.05;;;;;;;1.10;81.47;100370.91;1778902;79;21210;-70
2022/05/11 01:43:59;;;;;;;13.88;4.75;;;;;;;1.05;81.66;100370.45;1789011;79;21513;-70
2022/05/11 01:46:30;;;;;;;13.15;4.67;;;;;;;1.05;81.66;100370.45;1779869;79;21199;-70
2022/05/11 01:48:57;;;;;;;22.17;5.33;;;;;;;1.07;82.01;100371.77;1777366;80;21070;-70
2022/05/11 01:51:23;;;;;;;25.82;4.60;;;;;;;1.08;82.48;100372.63;1741021;80;21062;-70
2022/05/11 01:53:51;;;;;;;14.10;4.12;;;;;;;1.10;82.66;100369.61;1762140;81;21243;-71
2022/05/11 01:56:22;;;;;;;18.23;4.70;;;;;;;1.10;82.35;100369.61;1740694;80;21088;-70
2022/05/11 01:58:49;;;;;;;11.90;4.30;;;;;;;1.12;82.69;100361.41;1743995;80;21529;-71
2022/05/11 02:01:19;;;;;;;11.78;4.35;;;;;;;1.14;82.64;100368.78;1715194;83;21358;-70
2022/05/11 02:03:46;;;;;;;7.17;2.85;;;;;;;1.11;82.51;100357.09;1695728;83;21323;-73
2022/05/11 02:08:59;;;;;;;10.90;4.47;;;;;;;1.11;82.78;100357.09;1698990;82;21059;-72
2022/05/11 02:11:26;;;;;;;6.78;3.60;;;;;;;1.09;82.46;100358.81;1694339;82;21114;-70
2022/05/11 02:13:53;;;;;;;11.43;3.58;;;;;;;1.14;82.20;100357.10;1728131;82;21107;-71
2022/05/11 02:16:20;;;;;;;8.28;4.03;;;;;;;1.05;82.81;100358.77;1722273;82;21088;-70
2022/05/11 02:18:46;;;;;;;10.28;4.55;;;;;;;1.04;82.95;100354.90;1702850;82;21170;-72
2022/05/11 02:21:14;;;;;;;10.58;4.00;;;;;;;1.04;82.95;100354.90;1713533;82;21139;-69
2022/05/11 02:23:47;;;;;;;9.98;4.20;;;;;;;1.02;82.76;100358.77;1713701;82;21572;-71
2022/05/11 02:26:13;;;;;;;9.40;4.50;;;;;;;1.03;82.93;100360.49;1713510;82;21060;-72
2022/05/11 02:28:42;;;;;;;9.85;3.75;;;;;;;1.03;83.08;100352.71;1698694;82;21114;-71
2022/05/11 02:31:09;;;;;;;7.78;4.03;;;;;;;1.04;83.55;100353.17;1719431;82;21219;-71
2022/05/11 02:33:36;;;;;;;10.88;4.17;;;;;;;1.02;83.84;100313.38;1716135;82;21136;-71
2022/05/11 02:36:03;;;;;;;8.05;3.98;;;;;;;1.03;83.37;100313.81;1664530;84;21629;-70
2022/05/11 02:38:33;;;;;;;8.03;4.10;;;;;;;1.05;83.47;100313.83;1688741;84;21042;-70
2022/05/11 02:41:00;;;;;;;9.50;4.30;;;;;;;1.07;83.50;100313.84;1711662;82;21077;-69
2022/05/11 02:43:28;;;;;;;8.08;4.37;;;;;;;1.08;83.47;100318.16;1724285;83;21198;-71
2022/05/11 02:45:57;;;;;;;5.87;3.75;;;;;;;1.12;83.50;100314.72;1704954;82;21067;-72
2022/05/11 02:48:25;;;;;;;8.43;3.92;;;;;;;1.12;83.50;100314.72;1698217;82;22140;-70
2022/05/11 02:50:55;;;;;;;8.70;4.60;;;;;;;1.16;83.86;100317.77;1698424;82;21622;-71
2022/05/11 02:53:23;;;;;;;6.75;4.10;;;;;;;1.19;84.03;100313.88;1713867;82;21090;-69
2022/05/11 02:55:52;;;;;;;7.90;3.72;;;;;;;1.22;84.22;100308.70;1725644;82;21209;-70
2022/05/11 02:58:22;;;;;;;7.45;3.80;;;;;;;1.30;84.26;100319.13;1715993;82;21093;-69
2022/05/11 03:00:51;;;;;;;8.55;4.35;;;;;;;1.37;84.31;100318.28;1727764;83;21021;-69
2022/05/11 03:03:18;;;;;;;12.78;4.28;;;;;;;1.44;84.52;100310.51;1711255;82;21080;-71
2022/05/11 03:05:47;;;;;;;12.43;4.87;;;;;;;1.54;84.42;100310.54;1716465;82;21089;-70
2022/05/11 03:08:14;;;;;;;9.85;4.97;;;;;;;1.68;84.38;100316.66;1701496;82;21205;-70
2022/05/11 03:10:41;;;;;;;8.80;4.45;;;;;;;1.83;84.23;100318.40;1707425;82;21210;-70
2022/05/11 03:13:09;;;;;;;8.68;4.30;;;;;;;1.97;84.02;100313.22;1702381;82;21132;-71
2022/05/11 03:15:36;;;;;;;8.43;4.17;;;;;;;2.14;83.97;100320.61;1707176;82;21276;-72
2022/05/11 03:18:04;;;;;;;7.78;4.10;;;;;;;2.29;83.66;100316.69;1725792;83;21069;-70
2022/05/11 03:20:31;;;;;;;9.60;3.83;;;;;;;2.50;83.15;100311.05;1714363;82;21173;-70
2022/05/11 03:22:57;;;;;;;9.10;3.90;;;;;;;2.76;82.53;100317.93;1706189;82;21067;-71
2022/05/11 03:25:26;;;;;;;13.18;4.03;;;;;;;3.12;82.20;100313.06;1717538;83;21085;-71
2022/05/11 03:27:53;;;;;;;9.23;3.90;;;;;;;3.75;81.00;100307.53;1695151;82;21576;-71
2022/05/11 03:30:20;;;;;;;11.35;3.90;;;;;;;4.59;78.22;100308.61;1693645;83;21067;-70
2022/05/11 03:35:31;;;;;;;9.73;3.80;;;;;;;6.22;69.90;100309.16;1680206;84;21046;-70
2022/05/11 03:37:59;;;;;;;5.28;3.30;;;;;;;7.00;66.23;100314.30;1680748;85;21074;-71
2022/05/11 03:40:27;;;;;;;6.78;3.83;;;;;;;7.71;62.58;100312.38;1680399;85;21095;-71
2022/05/11 03:42:54;;;;;;;7.85;3.85;;;;;;;8.37;58.61;100312.57;1678940;83;21212;-71
2022/05/11 03:45:25;;;;;;;9.00;3.60;;;;;;;9.00;56.29;100315.77;1679085;84;21862;-72
2022/05/11 03:47:51;;;;;;;8.50;3.90;;;;;;;9.64;53.98;100318.77;1678705;85;22313;-72
2022/05/11 03:50:22;;;;;;;6.60;3.50;;;;;;;10.26;51.28;100317.24;1679930;84;21599;-71
2022/05/11 03:52:51;;;;;;;6.92;3.15;;;;;;;10.78;49.03;100318.59;1650692;85;21074;-71
2022/05/11 03:55:18;;;;;;;6.70;3.22;;;;;;;11.32;47.79;100319.31;1677440;83;21580;-72
2022/05/11 03:57:45;;;;;;;9.18;3.70;;;;;;;11.92;46.14;100319.23;1697152;83;21839;-70
2022/05/11 04:00:21;;;;;;;9.23;3.60;;;;;;;12.47;44.67;100320.09;1690529;83;21046;-70
2022/05/11 04:02:50;;;;;;;7.40;3.30;;;;;;;13.03;43.24;100321.69;1672119;84;21067;-71
2022/05/11 04:05:17;;;;;;;6.53;3.37;;;;;;;13.55;42.03;100324.19;1697498;83;21053;-70
2022/05/11 04:07:45;;;;;;;7.97;3.08;;;;;;;14.02;40.52;100328.17;1667345;86;21112;-71
2022/05/11 04:10:14;;;;;;;5.15;3.35;;;;;;;14.37;39.73;100323.78;1696795;83;21158;-72
2022/05/11 04:12:41;;;;;;;9.63;3.37;;;;;;;14.73;38.47;100321.58;1697256;83;21545;-71
2022/05/11 04:15:10;;;;;;;6.78;3.70;;;;;;;15.12;37.17;100321.78;1648175;84;21124;-71
2022/05/11 04:17:37;;;;;;;8.58;3.20;;;;;;;15.47;35.90;100327.84;1696302;83;21120;-72
2022/05/11 04:20:06;;;;;;;12.88;3.62;;;;;;;15.78;35.16;100327.98;1690888;84;21091;-71
2022/05/11 04:22:33;;;;;;;5.85;3.22;;;;;;;16.05;34.66;100327.77;1669012;85;21422;-71
2022/05/11 04:25:01;;;;;;;10.08;3.50;;;;;;;16.38;33.65;100328.13;1670675;83;21072;-72
2022/05/11 04:27:29;;;;;;;8.45;3.58;;;;;;;16.60;32.45;100327.71;1696586;83;21572;-71
2022/05/11 04:29:56;;;;;;;11.18;3.77;;;;;;;16.72;32.48;100335.44;1697765;83;21005;-71
2022/05/11 04:32:22;;;;;;;6.67;3.70;;;;;;;16.85;31.19;100328.48;1699362;83;21228;-70
2022/05/11 04:34:50;;;;;;;7.22;3.60;;;;;;;16.97;31.11;100321.08;1677082;83;21513;-71
2022/05/11 04:37:17;;;;;;;8.35;3.67;;;;;;;17.18;30.81;100330.03;1726938;83;21100;-72
2022/05/11 04:39:43;;;;;;;8.25;3.77;;;;;;;17.37;30.57;100327.96;1722688;83;21567;-71
2022/05/11 04:42:10;;;;;;;8.65;3.45;;;;;;;17.53;30.09;100328.31;1727878;83;21638;-71
2022/05/11 04:44:39;;;;;;;7.25;3.30;;;;;;;17.69;30.21;100322.42;1724850;83;21076;-73
2022/05/11 04:47:11;;;;;;;9.58;3.92;;;;;;;17.94;29.61;100324.86;1717099;82;21240;-72
2022/05/11 04:49:39;;;;;;;11.97;4.08;;;;;;;18.22;29.21;100322.58;1716241;83;21115;-73
2022/05/11 04:52:13;;;;;;;5.97;3.20;;;;;;;18.38;28.59;100323.75;1702386;83;21085;-74
2022/05/11 04:54:48;;;;;;;12.78;3.52;;;;;;;18.49;28.48;100317.23;1715758;82;21101;-75
2022/05/11 04:57:19;;;;;;;7.87;4.28;;;;;;;18.66;28.51;100324.96;1725541;83;21072;-72
2022/05/11 04:59:45;;;;;;;13.62;4.03;;;;;;;18.86;27.47;100320.10;1709367;82;21243;-72
2022/05/11 05:02:19;;;;;;;8.78;3.80;;;;;;;18.86;27.11;100321.44;1716079;82;21573;-73
2022/05/11 05:04:46;;;;;;;8.68;3.92;;;;;;;18.93;27.09;100320.05;1698337;83;21193;-72
2022/05/11 05:07:13;;;;;;;7.47;3.50;;;;;;;19.00;26.91;100324.03;1710296;83;21209;-71
2022/05/11 05:09:41;;;;;;;6.08;3.27;;;;;;;19.20;27.26;100324.45;1706377;82;21783;-71
2022/05/11 05:12:11;;;;;;;8.23;3.42;;;;;;;19.56;26.79;100315.66;1718324;82;21167;-73
2022/05/11 05:14:38;;;;;;;7.12;4.10;;;;;;;19.79;26.03;100308.69;1724585;82;22092;-71
2022/05/11 05:17:08;;;;;;;8.53;3.60;;;;;;;19.90;26.42;100316.77;1709302;82;21591;-71
2022/05/11 05:19:41;;;;;;;;;;;;;;;20.06;26.49;100308.95;1716449;82;21081;-71
2022/05/11 05:22:09;;;;;;;7.90;3.33;;;;;;;20.18;25.84;100316.08;1703013;82;20312;-70
2022/05/11 05:24:36;;;;;;;7.80;3.67;;;;;;;20.22;26.29;100309.55;1725534;83;21656;-72
2022/05/11 05:27:05;;;;;;;7.65;3.30;;;;;;;20.46;26.06;100314.02;1727348;83;21088;-73
2022/05/11 05:32:13;;;;;;;6.12;2.95;;;;;;;20.93;25.11;100314.89;1620975;87;21123;-73
2022/05/11 05:34:43;;;;;;;7.65;3.25;;;;;;;21.18;24.86;100314.34;1679926;84;21128;-73
2022/05/11 05:37:16;;;;;;;6.03;3.20;;;;;;;21.25;24.81;100313.72;1672294;84;22219;-72
2022/05/11 05:39:44;;;;;;;7.47;3.40;;;;;;;21.25;24.34;100310.20;1675651;84;21097;-72
2022/05/11 05:42:20;;;;;;;6.42;3.27;;;;;;;21.28;24.22;100320.66;1681789;85;21245;-72
2022/05/11 05:44:46;;;;;;;5.95;3.12;;;;;;;21.28;24.33;100316.64;1680894;84;21133;-72
2022/05/11 05:47:15;;;;;;;10.58;3.75;;;;;;;21.49;24.48;100312.31;1674156;84;21157;-70
2022/05/11 05:49:43;;;;;;;14.85;4.87;;;;;;;21.63;23.69;100311.70;1670685;84;21571;-71
2022/05/11 05:52:21;;;;;;;13.70;3.87;;;;;;;21.49;23.54;100310.97;1684578;84;21073;-70
2022/05/11 05:54:48;;;;;;;13.25;4.50;;;;;;;21.42;23.61;100312.90;1652446;85;21086;-71
2022/05/11 05:57:15;;;;;;;10.35;4.10;;;;;;;21.25;23.50;100311.53;1675120;84;21160;-73
2022/05/11 05:59:45;;;;;;;10.45;4.20;;;;;;;21.36;23.63;100315.56;1697092;84;21517;-73
2022/05/11 06:02:14;;;;;;;17.42;7.25;;;;;;;21.31;23.34;100317.27;1697356;84;21493;-72
2022/05/11 06:04:45;;;;;;;12.58;5.28;;;;;;;21.27;23.18;100321.64;1696757;84;21091;-71
2022/05/11 06:07:12;;;;;;;23.05;8.58;;;;;;;21.46;23.27;100320.57;1694788;84;21108;-73
2022/05/11 06:09:39;;;;;;;28.02;10.88;;;;;;;21.79;22.99;100320.20;1695881;84;21063;-75
2022/05/11 06:12:09;;;;;;;28.60;10.98;;;;;;;22.06;22.29;100313.55;1695944;84;21040;-72
2022/05/11 06:14:37;;;;;;;29.13;11.77;;;;;;;22.21;21.73;100316.34;1697693;84;20997;-72
2022/05/11 06:17:14;;;;;;;29.37;11.63;;;;;;;22.32;21.93;100314.97;1698332;84;21107;-73
2022/05/11 06:19:42;;;;;;;22.80;10.53;;;;;;;22.33;21.64;100321.17;1664975;84;21611;-72
2022/05/11 06:22:10;;;;;;;30.45;11.08;;;;;;;22.27;20.99;100314.50;1697473;83;21125;-72
2022/05/11 06:24:37;;;;;;;26.60;11.38;;;;;;;22.27;21.15;100316.31;1696237;84;21076;-73
2022/05/11 06:27:04;;;;;;;32.35;13.05;;;;;;;22.23;21.39;100314.89;1698467;83;22039;-74
2022/05/11 06:29:31;;;;;;;26.40;11.03;;;;;;;22.27;21.96;100307.80;1707644;82;21578;-71
2022/05/11 06:32:00;;;;;;;20.00;7.75;;;;;;;22.41;21.94;100304.80;1704300;82;21078;-74
2022/05/11 06:34:26;;;;;;;13.45;6.45;;;;;;;22.61;21.62;100300.91;1711737;82;21069;-73
2022/05/11 06:36:52;;;;;;;11.48;5.87;;;;;;;22.62;20.79;100301.30;1700515;82;21134;-72
2022/05/11 06:39:23;;;;;;;17.07;6.67;;;;;;;22.77;20.64;100293.25;1699193;82;21536;-71
2022/05/11 06:41:50;;;;;;;14.90;7.60;;;;;;;22.96;20.60;100294.36;1702542;82;21141;-71
2022/05/11 06:44:19;;;;;;;12.45;6.85;;;;;;;23.07;20.66;100285.41;1698298;82;21082;-74
2022/05/11 06:46:45;;;;;;;15.32;7.78;;;;;;;23.09;20.48;100297.72;1721368;83;21025;-74
2022/05/11 06:49:12;;;;;;;13.58;6.35;;;;;;;23.03;20.06;100284.84;1698326;82;21070;-73
2022/05/11 06:51:38;;;;;;;13.60;6.85;;;;;;;23.12;20.11;100286.73;1698363;82;21893;-71
2022/05/11 06:59:38;;;;;;;12.70;5.35;;;;;;;23.21;20.18;100274.30;1711556;82;21057;-73
2022/05/11 07:02:06;;;;;;;10.30;5.20;;;;;;;23.22;19.36;100274.18;1726122;82;21073;-72
2022/05/11 07:04:33;;;;;;;15.88;6.75;;;;;;;23.21;18.85;100280.55;1714442;82;21252;-74
2022/05/11 07:07:00;;;;;;;12.82;6.08;;;;;;;23.13;19.17;100274.98;1707255;82;21189;-75
2022/05/11 07:09:32;;;;;;;16.25;7.53;;;;;;;23.14;18.90;100267.77;1714184;82;21598;-73
2022/05/11 07:12:21;;;;;;;16.12;6.67;;;;;;;23.03;19.18;100271.41;1715170;82;22275;-73
2022/05/11 07:14:53;;;;;;;15.48;6.05;;;;;;;23.14;19.57;100268.61;1702370;82;21236;-72
2022/05/11 07:17:34;;;;;;;;;;;;;;;23.36;19.40;100272.13;1705269;83;22250;-73
2022/05/11 07:20:03;;;;;;;10.23;4.85;;;;;;;23.53;19.24;100276.83;1699844;82;20234;-74
2022/05/11 07:22:36;;;;;;;15.30;6.53;;;;;;;23.52;18.25;100262.20;1715523;83;21596;-74
2022/05/11 07:25:06;;;;;;;15.25;7.55;;;;;;;23.58;18.10;100254.44;1722207;82;21584;-73
2022/05/11 07:27:33;;;;;;;15.15;7.28;;;;;;;23.57;18.72;100257.26;1723730;83;21585;-74
2022/05/11 07:30:00;;;;;;;13.75;6.58;;;;;;;23.48;18.98;100248.17;1702497;82;21161;-73
2022/05/11 07:32:27;;;;;;;9.98;5.20;;;;;;;23.71;19.20;100251.98;1719021;82;21059;-72
2022/05/11 07:34:55;;;;;;;10.58;5.28;;;;;;;24.12;18.55;100246.05;1716991;82;21092;-72
2022/05/11 07:37:23;;;;;;;10.90;4.87;;;;;;;24.28;18.11;100240.95;1712061;82;21132;-72
2022/05/11 07:39:49;;;;;;;10.75;5.35;;;;;;;24.29;18.48;100243.98;1717842;82;21076;-72
2022/05/11 07:42:16;;;;;;;8.30;4.55;;;;;;;24.40;18.05;100241.14;1707256;83;21197;-71
2022/05/11 07:44:45;;;;;;;7.85;4.35;;;;;;;24.42;17.91;100233.77;1708670;82;21014;-72
2022/05/11 07:47:11;;;;;;;8.53;4.67;;;;;;;24.15;18.16;100238.53;1715006;82;21557;-72
2022/05/11 07:49:39;;;;;;;10.90;4.53;;;;;;;24.16;18.58;100236.72;1709608;82;21538;-72
2022/05/11 07:52:06;;;;;;;10.05;3.77;;;;;;;24.27;18.29;100233.84;1712337;82;21127;-71
2022/05/11 07:54:33;;;;;;;8.83;3.75;;;;;;;24.35;17.63;100231.81;1716622;82;21296;-73
2022/05/11 07:59:52;;;;;;;8.08;3.50;;;;;;;24.42;18.27;100228.39;1723598;82;21040;-72
2022/05/11 08:02:25;;;;;;;6.70;3.70;;;;;;;24.61;17.67;100236.11;1724825;82;21049;-74
2022/05/11 08:04:51;;;;;;;9.78;3.83;;;;;;;24.89;17.39;100243.28;1724805;82;21056;-73
2022/05/11 08:07:18;;;;;;;8.03;3.72;;;;;;;24.94;17.05;100243.32;1711132;82;21282;-73
2022/05/11 08:09:45;;;;;;;6.95;3.42;;;;;;;24.85;17.19;100237.83;1716832;82;21565;-75
2022/05/11 08:12:11;;;;;;;10.03;4.03;;;;;;;24.83;17.28;100229.05;1725696;82;22139;-74
2022/05/11 08:14:37;;;;;;;6.95;3.67;;;;;;;24.90;17.21;100227.46;1713016;82;21152;-72
2022/05/11 08:17:04;;;;;;;5.97;3.50;;;;;;;25.02;17.46;100224.08;1716069;82;21568;-73
2022/05/11 08:19:30;;;;;;;8.40;4.30;;;;;;;25.17;16.96;100229.86;1718102;82;21264;-73
2022/05/11 08:21:57;;;;;;;8.48;4.12;;;;;;;25.33;16.87;100226.05;1704747;83;21028;-73
2022/05/11 08:24:24;;;;;;;9.00;3.50;;;;;;;25.39;16.82;100221.88;1705130;83;21084;-72
2022/05/11 08:26:51;;;;;;;8.45;3.45;;;;;;;25.08;16.90;100224.01;1706880;83;21119;-71
2022/05/11 08:34:51;;;;;;;8.75;3.58;;;;;;;24.84;17.99;100221.30;1710805;82;21089;-71
2022/05/11 08:37:18;;;;;;;6.60;3.37;;;;;;;25.03;17.24;100208.77;1704814;82;21084;-72
2022/05/11 08:39:45;;;;;;;8.43;3.10;;;;;;;25.24;17.41;100220.71;1698444;83;21074;-73
2022/05/11 08:42:12;;;;;;;10.30;3.05;;;;;;;25.38;17.38;100220.71;1711331;82;21245;-73
2022/05/11 08:44:47;;;;;;;7.37;3.00;;;;;;;25.13;16.94;100210.93;1718708;82;21248;-74
2022/05/11 08:47:30;;;;;;;8.88;3.55;;;;;;;25.00;17.47;100211.26;1715747;82;21556;-74
2022/05/11 08:50:19;;;;;;;6.80;3.33;;;;;;;24.99;17.44;100209.57;1702157;82;21158;-73
2022/05/11 08:53:07;;;;;;;8.40;3.70;;;;;;;25.21;16.81;100211.05;1717900;82;21169;-72
2022/05/11 08:55:49;;;;;;;5.87;2.80;;;;;;;25.33;17.22;100209.87;1710799;82;21660;-72
2022/05/11 08:58:42;;;;;;;7.60;2.52;;;;;;;25.21;16.74;100206.16;1725570;82;21965;-72
2022/05/11 09:01:28;;;;;;;4.25;2.15;;;;;;;25.08;16.74;100201.95;1727282;83;21453;-73
2022/05/11 09:03:54;;;;;;;6.03;2.83;;;;;;;24.79;16.05;100195.31;1712521;82;21062;-74
2022/05/11 09:06:24;;;;;;;4.67;2.42;;;;;;;24.47;16.73;100189.80;1711534;83;21118;-72
2022/05/11 09:08:52;;;;;;;6.50;2.20;;;;;;;24.57;16.82;100193.84;1698382;82;21079;-72
2022/05/11 09:11:44;;;;;;;3.58;2.05;;;;;;;24.77;16.41;100191.92;1720194;83;21506;-72
2022/05/11 09:14:14;;;;;;;6.45;2.10;;;;;;;24.87;16.04;100190.06;1719299;82;21045;-74
2022/05/11 09:16:46;;;;;;;7.45;2.40;;;;;;;24.63;15.93;100184.31;1715395;82;21130;-74
2022/05/11 09:19:26;;;;;;;5.28;2.42;;;;;;;24.35;16.36;100180.17;1698279;82;21317;-74
2022/05/11 09:22:17;;;;;;;8.18;2.45;;;;;;;24.21;16.39;100179.28;1712999;82;22191;-72
2022/05/11 09:24:48;;;;;;;8.95;2.60;;;;;;;24.01;16.94;100176.59;1705238;82;21757;-73
2022/05/11 09:27:28;;;;;;;6.47;2.30;;;;;;;24.29;16.88;100170.84;1702050;82;21041;-73
2022/05/11 09:30:04;;;;;;;3.60;2.25;;;;;;;24.36;16.69;100172.44;1717025;82;21024;-73
2022/05/11 09:32:38;;;;;;;7.22;2.70;;;;;;;24.42;17.21;100177.75;1684255;83;21108;-72
2022/05/11 09:35:22;;;;;;;7.55;2.77;;;;;;;24.39;16.61;100164.59;1682093;83;21167;-73
2022/05/11 09:38:20;;;;;;;8.00;2.60;;;;;;;24.48;15.97;100175.37;1696609;84;21203;-73
2022/05/11 09:41:01;;;;;;;4.72;2.30;;;;;;;24.33;15.66;100175.42;1696552;83;21123;-73
2022/05/11 09:43:36;;;;;;;4.58;2.20;;;;;;;24.17;15.90;100172.48;1688161;83;21199;-73
2022/05/11 09:46:22;;;;;;;6.37;2.00;;;;;;;24.18;17.23;100171.47;1677086;83;21620;-74
2022/05/11 09:49:19;;;;;;;8.03;1.82;;;;;;;24.19;16.94;100175.87;1687095;83;21025;-74
2022/05/11 09:51:51;;;;;;;5.83;1.85;;;;;;;24.29;16.81;100163.25;1685400;82;21234;-74
2022/05/11 09:54:51;;;;;;;6.20;2.10;;;;;;;24.30;15.58;100163.62;1688428;83;21633;-73
2022/05/11 09:57:27;;;;;;;5.78;1.77;;;;;;;24.35;16.36;100161.84;1689737;83;21316;-72
2022/05/11 09:59:57;;;;;;;4.78;1.98;;;;;;;24.66;16.57;100167.39;1697296;83;21028;-73
2022/05/11 10:02:36;;;;;;;5.93;2.10;;;;;;;25.11;16.21;100153.64;1679617;83;21017;-73
2022/05/11 10:05:28;;;;;;;7.80;2.10;;;;;;;25.11;16.21;100153.64;1663036;85;21238;-73
2022/05/11 10:08:18;;;;;;;5.00;2.02;;;;;;;25.05;15.51;100150.19;1663700;83;21069;-72
2022/05/11 10:11:10;;;;;;;;;;;;;;;24.99;16.17;100157.55;1670224;84;21120;-72
2022/05/11 10:13:51;;;;;;;5.20;2.35;;;;;;;25.15;14.99;100156.39;1670117;84;20184;-74
2022/05/11 10:22:45;;;;;;;3.87;2.00;;;;;;;25.61;14.82;100153.22;1684295;83;21098;-74
2022/05/11 10:25:24;;;;;;;7.97;2.35;;;;;;;25.70;15.21;100149.59;1697762;83;21028;-73
2022/05/11 10:28:20;;;;;;;3.35;1.98;;;;;;;25.49;14.97;100140.94;1697581;83;21123;-72
2022/05/11 10:30:58;;;;;;;6.83;2.40;;;;;;;25.02;16.12;100138.38;1670356;84;21076;-72
2022/05/11 10:33:53;;;;;;;5.85;2.67;;;;;;;25.04;15.70;100136.38;1676012;84;21624;-73
2022/05/11 10:36:47;;;;;;;3.95;2.40;;;;;;;25.16;15.68;100141.91;1646338;84;21116;-75
2022/05/11 10:40:01;;;;;;;5.65;2.90;;;;;;;25.26;15.76;100154.88;1676108;83;21066;-73
2022/05/11 10:42:39;;;;;;;6.40;2.60;;;;;;;25.31;16.13;100137.74;1695084;84;21077;-71
2022/05/11 10:45:26;;;;;;;5.72;3.10;;;;;;;25.49;16.05;100132.85;1694433;84;21638;-72
2022/05/11 10:48:35;;;;;;;5.85;2.92;;;;;;;25.60;15.98;100138.02;1687820;83;21192;-73
2022/05/11 10:51:27;;;;;;;7.80;3.47;;;;;;;25.49;15.34;100127.46;1679833;83;21078;-71
2022/05/11 10:54:25;;;;;;;8.10;3.15;;;;;;;25.43;15.60;100117.31;1691562;83;21111;-72
2022/05/11 10:57:20;;;;;;;13.10;4.40;;;;;;;25.51;16.44;100122.77;1686716;84;21085;-72
2022/05/11 11:00:10;;;;;;;14.50;5.22;;;;;;;25.70;16.09;100114.53;1691124;83;21067;-72
2022/05/11 11:03:21;;;;;;;9.15;4.12;;;;;;;25.74;15.78;100106.97;1689932;84;21154;-72
2022/05/11 11:09:04;;;;;;;13.65;5.30;;;;;;;24.69;16.66;100109.19;1668703;83;21029;-73
2022/05/11 11:11:55;;;;;;;6.87;3.87;;;;;;;24.54;16.85;100096.36;1626791;84;21090;-72
2022/05/11 11:14:32;;;;;;;12.67;3.50;;;;;;;24.61;16.76;100094.77;1683528;83;21645;-74
2022/05/11 11:17:01;;;;;;;7.10;3.10;;;;;;;24.54;17.68;100107.12;1667894;84;21395;-73
2022/05/11 11:19:27;;;;;;;8.20;3.60;;;;;;;24.57;16.90;100096.05;1671081;84;21027;-72
2022/05/11 11:21:55;;;;;;;8.53;4.12;;;;;;;24.53;17.41;100095.52;1682192;84;21216;-73
2022/05/11 11:24:27;;;;;;;8.15;4.08;;;;;;;24.54;17.17;100099.89;1686153;84;21115;-72
2022/05/11 11:26:57;;;;;;;8.05;3.52;;;;;;;24.68;17.41;100100.74;1695290;84;21101;-73
2022/05/11 11:30:06;;;;;;;4.93;2.67;;;;;;;24.87;17.65;100101.17;1686209;84;21678;-72
2022/05/11 11:32:33;;;;;;;8.70;3.30;;;;;;;24.90;17.09;100100.86;1685336;83;21014;-71
2022/05/11 11:35:25;;;;;;;5.95;3.10;;;;;;;24.83;17.16;100094.89;1687918;84;21053;-74
2022/05/11 11:38:01;;;;;;;6.90;3.35;;;;;;;24.72;17.11;100083.80;1681548;84;21566;-72
2022/05/11 11:40:30;;;;;;;8.63;3.52;;;;;;;24.74;17.71;100099.31;1664586;84;21052;-73
2022/05/11 11:42:57;;;;;;;6.78;2.80;;;;;;;24.60;17.04;100095.77;1665355;85;21229;-74
2022/05/11 11:45:30;;;;;;;6.00;2.77;;;;;;;24.18;17.45;100094.80;1672247;84;21068;-71
2022/05/11 11:48:05;;;;;;;5.65;3.10;;;;;;;23.96;18.05;100090.11;1674023;84;21160;-73
2022/05/11 11:50:53;;;;;;;8.90;3.45;;;;;;;23.90;18.14;100077.22;1680744;84;21115;-72
2022/05/11 11:53:43;;;;;;;11.05;3.58;;;;;;;23.92;18.15;100086.00;1670955;84;21085;-72
2022/05/11 11:56:35;;;;;;;7.50;3.20;;;;;;;24.19;18.13;100084.40;1683073;84;21871;-73
2022/05/11 11:59:28;;;;;;;8.20;3.55;;;;;;;24.36;18.23;100081.44;1673335;84;21097;-73
2022/05/11 12:02:19;;;;;;;9.38;3.70;;;;;;;24.43;17.58;100073.99;1683279;85;21108;-73
2022/05/11 12:05:01;;;;;;;8.33;3.15;;;;;;;23.98;17.92;100069.80;1683243;85;21058;-73
2022/05/11 12:16:53;;;;;;;8.28;3.45;;;;;;;22.71;19.24;100055.39;1667009;84;21136;-73
2022/05/11 12:19:26;;;;;;;8.40;3.40;;;;;;;22.63;19.37;100059.58;1684584;85;22230;-74
2022/05/11 12:22:00;;;;;;;7.40;3.45;;;;;;;22.54;19.51;100058.20;1685191;85;21070;-74
2022/05/11 12:24:38;;;;;;;8.60;3.75;;;;;;;22.55;19.72;100057.23;1671559;84;21912;-72
2022/05/11 12:27:12;;;;;;;8.58;3.72;;;;;;;22.34;19.65;100063.50;1669995;84;21069;-73
2022/05/11 12:29:58;;;;;;;6.33;3.33;;;;;;;22.36;19.70;100055.30;1664876;84;21496;-73
2022/05/11 12:32:35;;;;;;;7.00;3.98;;;;;;;22.47;19.98;100057.05;1648270;85;21100;-73
2022/05/11 12:35:18;;;;;;;8.25;3.60;;;;;;;22.66;19.52;100049.09;1643949;84;21180;-72